Time;durP1;ratioP1;P1;durP2;ratioP2;P2;SDS_P1;SDS_P2;PMS_P1;PMS_P2;Temp;Humidity;BMP_temperature;BMP_pressure;BME280_temperature;BME280_humidity;BME280_pressure;Samples;Min_cycle;Max_cycle;Signal;HPM_P1;HPM_P2
2022/04/22 00:01:41;;;;;;;8.50;5.78;;;11.80;92.10;;;;;;5010415;28;20068;-82
2022/04/22 00:04:11;;;;;;;8.68;5.45;;;11.80;92.60;;;;;;5025127;28;20045;-81
2022/04/22 00:06:49;;;;;;;8.85;5.90;;;11.70;92.50;;;;;;5006994;28;20038;-82
2022/04/22 00:09:15;;;;;;;;;;;11.70;92.90;;;;;;5007623;28;20033;-81
2022/04/22 00:11:49;;;;;;;9.82;5.47;;;11.70;93.10;;;;;;5007766;28;19925;-82
2022/04/22 00:14:15;;;;;;;9.25;5.45;;;11.70;93.30;;;;;;5008004;28;20034;-81
2022/04/22 00:16:43;;;;;;;7.53;4.82;;;11.70;93.60;;;;;;5025939;28;20025;-81
2022/04/22 00:19:10;;;;;;;7.13;4.95;;;11.60;93.70;;;;;;5024221;28;20025;-81
2022/04/22 00:21:36;;;;;;;7.30;4.95;;;11.60;94.10;;;;;;4992793;28;20041;-81
2022/04/22 00:24:06;;;;;;;9.75;6.40;;;11.50;94.30;;;;;;5029119;28;20049;-80
2022/04/22 00:26:33;;;;;;;6.18;5.10;;;11.50;94.60;;;;;;5007095;28;20499;-81
2022/04/22 00:28:59;;;;;;;7.97;5.50;;;11.50;94.70;;;;;;4997543;28;20387;-81
2022/04/22 00:31:26;;;;;;;8.52;5.65;;;11.50;95.00;;;;;;5008202;28;20033;-81
2022/04/22 00:34:33;;;;;;;7.10;4.45;;;11.40;95.20;;;;;;5029374;28;20033;-82
2022/04/22 00:36:59;;;;;;;12.07;6.28;;;11.40;95.20;;;;;;5022964;28;20038;-81
2022/04/22 00:39:26;;;;;;;9.23;6.18;;;11.40;95.70;;;;;;5024420;28;20029;-81
2022/04/22 00:41:53;;;;;;;9.18;5.68;;;11.30;95.70;;;;;;5025299;28;20038;-79
2022/04/22 00:44:19;;;;;;;8.18;6.13;;;11.30;96.00;;;;;;5044003;28;20026;-80
2022/04/22 00:46:46;;;;;;;7.93;6.10;;;11.20;96.40;;;;;;5039493;28;20429;-79
2022/04/22 00:49:12;;;;;;;8.07;6.18;;;11.30;96.90;;;;;;5006868;28;20038;-80
2022/04/22 00:51:39;;;;;;;9.27;6.40;;;11.20;96.90;;;;;;4994631;28;20042;-80
2022/04/22 00:54:06;;;;;;;6.63;4.80;;;11.20;97.20;;;;;;4996090;28;20026;-80
2022/04/22 00:56:33;;;;;;;8.45;5.30;;;11.20;97.40;;;;;;5023276;28;20026;-79
2022/04/22 00:59:01;;;;;;;5.55;3.65;;;11.20;97.60;;;;;;5005995;28;20037;-80
2022/04/22 01:01:29;;;;;;;9.02;5.57;;;11.10;97.50;;;;;;5019858;28;20048;-79
2022/04/22 01:12:11;;;;;;;8.15;4.68;;;10.90;98.60;;;;;;5006024;28;20042;-81
2022/04/22 01:14:41;;;;;;;7.13;5.38;;;10.90;98.90;;;;;;5004040;28;20038;-82
2022/04/22 01:17:08;;;;;;;12.13;7.57;;;10.90;99.00;;;;;;5022333;28;20017;-81
2022/04/22 01:19:35;;;;;;;11.45;5.57;;;10.80;99.50;;;;;;5004350;28;20136;-82
2022/04/22 01:22:07;;;;;;;7.97;4.90;;;10.80;99.60;;;;;;5005167;28;20072;-83
2022/04/22 01:24:38;;;;;;;7.60;5.03;;;10.80;99.60;;;;;;5018802;28;20397;-83
2022/04/22 01:27:07;;;;;;;8.48;3.97;;;10.70;99.90;;;;;;4990747;28;20280;-83
2022/04/22 01:29:35;;;;;;;8.80;4.80;;;10.70;99.90;;;;;;4990795;28;20037;-82
2022/04/22 01:32:04;;;;;;;6.82;4.53;;;10.70;99.90;;;;;;4990834;28;20052;-83
2022/04/22 01:34:35;;;;;;;5.55;3.88;;;10.70;99.90;;;;;;5004461;28;21163;-83
2022/04/22 01:37:01;;;;;;;8.25;5.47;;;10.60;99.90;;;;;;4987358;28;20045;-83
2022/04/22 01:39:32;;;;;;;5.85;4.47;;;10.60;99.90;;;;;;4987266;28;20056;-80
2022/04/22 01:42:06;;;;;;;6.43;4.97;;;10.60;99.90;;;;;;4996427;28;20084;-82
2022/04/22 01:44:35;;;;;;;9.02;4.57;;;10.60;99.90;;;;;;5022946;28;20362;-82
2022/04/22 01:47:04;;;;;;;8.32;5.15;;;10.50;99.90;;;;;;5003987;28;20029;-82
2022/04/22 01:49:34;;;;;;;7.40;4.93;;;10.50;99.90;;;;;;5019245;28;20599;-82
2022/04/22 01:52:03;;;;;;;6.28;4.72;;;10.50;99.90;;;;;;5020690;28;20034;-81
2022/04/22 01:54:33;;;;;;;7.03;4.70;;;10.50;99.90;;;;;;5021418;28;20018;-82
2022/04/22 01:57:01;;;;;;;7.40;4.45;;;10.40;99.90;;;;;;5021277;28;20025;-82
2022/04/22 01:59:33;;;;;;;10.35;5.13;;;10.40;99.90;;;;;;5005063;28;20037;-81
2022/04/22 02:02:04;;;;;;;6.95;4.38;;;10.40;99.90;;;;;;4988768;28;20044;-82
2022/04/22 02:04:44;;;;;;;7.05;4.65;;;10.40;99.90;;;;;;5021711;28;20034;-82
2022/04/22 02:07:14;;;;;;;6.88;4.60;;;10.30;99.90;;;;;;5009629;28;20516;-82
2022/04/22 02:09:42;;;;;;;6.97;5.20;;;10.30;99.90;;;;;;5021895;28;20033;-82
2022/04/22 02:12:09;;;;;;;6.85;5.25;;;10.30;99.90;;;;;;4992910;28;20041;-82
2022/04/22 02:14:36;;;;;;;7.72;4.95;;;10.30;99.90;;;;;;5023612;28;20349;-82
2022/04/22 02:17:03;;;;;;;10.25;5.53;;;10.20;99.90;;;;;;4990724;28;20030;-82
2022/04/22 02:19:34;;;;;;;7.82;4.93;;;10.20;99.90;;;;;;5019861;28;20049;-81
2022/04/22 02:22:01;;;;;;;5.60;3.65;;;10.20;99.90;;;;;;5003955;28;20052;-82
2022/04/22 02:24:28;;;;;;;6.40;3.67;;;10.20;99.90;;;;;;5017663;28;20642;-82
2022/04/22 02:29:40;;;;;;;6.80;5.15;;;10.20;99.90;;;;;;5021546;28;20034;-81
2022/04/22 02:32:07;;;;;;;7.68;4.80;;;10.20;99.90;;;;;;5022253;28;20068;-80
2022/04/22 02:34:36;;;;;;;8.50;5.57;;;10.10;99.90;;;;;;5022337;28;20013;-81
2022/04/22 02:37:02;;;;;;;6.95;4.72;;;10.10;99.90;;;;;;5019597;28;20034;-81
2022/04/22 02:39:31;;;;;;;6.10;4.15;;;10.10;99.90;;;;;;5018472;28;20057;-81
2022/04/22 02:47:27;;;;;;;10.20;6.03;;;10.00;99.90;;;;;;5021213;28;20377;-82
2022/04/22 02:49:54;;;;;;;10.52;6.53;;;10.00;99.90;;;;;;5018632;28;20018;-81
2022/04/22 02:52:21;;;;;;;8.88;5.88;;;10.00;99.90;;;;;;4990431;28;20044;-82
2022/04/22 02:54:47;;;;;;;13.48;7.40;;;10.00;99.90;;;;;;5015173;28;20025;-81
2022/04/22 02:57:16;;;;;;;8.52;6.05;;;9.90;99.90;;;;;;4991872;28;20049;-84
2022/04/22 02:59:44;;;;;;;9.50;6.55;;;9.90;99.90;;;;;;4987660;28;20068;-85
2022/04/22 03:02:11;;;;;;;6.95;4.88;;;9.90;99.90;;;;;;5018468;28;20018;-84
2022/04/22 03:04:38;;;;;;;9.55;5.93;;;9.90;99.90;;;;;;5006959;28;20029;-83
2022/04/22 03:07:07;;;;;;;9.23;6.13;;;9.90;99.90;;;;;;4990852;28;20033;-85
2022/04/22 03:09:33;;;;;;;8.43;6.32;;;9.90;99.90;;;;;;4990927;28;20374;-84
2022/04/22 03:12:00;;;;;;;9.50;6.63;;;9.90;99.90;;;;;;4993221;28;21066;-85
2022/04/22 03:14:26;;;;;;;12.63;7.13;;;9.90;99.90;;;;;;5005162;28;20621;-84
2022/04/22 03:16:53;;;;;;;10.75;6.53;;;9.90;99.90;;;;;;4980131;28;20040;-85
2022/04/22 03:19:27;;;;;;;14.07;8.30;;;9.80;99.90;;;;;;4989397;28;20026;-84
2022/04/22 03:22:00;;;;;;;13.00;7.72;;;9.80;99.90;;;;;;5024347;28;20052;-85
2022/04/22 03:24:26;;;;;;;10.48;7.53;;;9.80;99.90;;;;;;5022591;28;20109;-85
2022/04/22 03:26:54;;;;;;;14.63;8.73;;;9.80;99.90;;;;;;5022721;28;20037;-85
2022/04/22 03:29:21;;;;;;;12.20;7.85;;;9.80;99.90;;;;;;5025018;28;20181;-87
2022/04/22 03:31:47;;;;;;;16.17;10.57;;;9.80;99.90;;;;;;5010186;28;20042;-85
2022/04/22 03:34:16;;;;;;;10.85;7.60;;;9.80;99.90;;;;;;4993032;28;20032;-85
2022/04/22 03:36:43;;;;;;;10.95;7.30;;;9.80;99.90;;;;;;5022272;28;20042;-78
2022/04/22 03:39:15;;;;;;;10.35;7.13;;;9.80;99.90;;;;;;4989074;28;20037;-87
2022/04/22 03:41:41;;;;;;;10.98;9.13;;;9.80;99.90;;;;;;5006231;28;20381;-87
2022/04/22 03:44:09;;;;;;;13.25;8.57;;;9.80;99.90;;;;;;5009747;28;20151;-87
2022/04/22 03:46:41;;;;;;;13.52;10.05;;;9.70;99.90;;;;;;4994243;28;20045;-87
2022/04/22 03:49:09;;;;;;;11.85;9.02;;;9.70;99.90;;;;;;4989283;28;20045;-85
2022/04/22 03:51:37;;;;;;;12.43;9.48;;;9.70;99.90;;;;;;4992311;28;20038;-85
2022/04/22 03:54:06;;;;;;;14.25;10.10;;;9.70;99.90;;;;;;5026239;28;20033;-85
2022/04/22 03:59:21;;;;;;;13.93;10.10;;;9.70;99.90;;;;;;5024442;28;20056;-85
2022/04/22 04:01:48;;;;;;;13.88;10.82;;;9.60;99.90;;;;;;5029860;28;20037;-85
2022/04/22 04:04:14;;;;;;;15.95;11.15;;;9.60;99.90;;;;;;5033351;28;20037;-85
2022/04/22 04:06:42;;;;;;;14.77;11.02;;;9.60;99.90;;;;;;5024628;28;20036;-81
2022/04/22 04:17:24;;;;;;;14.10;9.50;;;9.50;99.90;;;;;;5026833;28;20051;-82
2022/04/22 04:25:21;;;;;;;12.50;8.90;;;9.50;99.90;;;;;;5022656;28;20022;-81
2022/04/22 04:27:49;;;;;;;13.05;8.73;;;9.40;99.90;;;;;;5009384;28;20039;-82
2022/04/22 04:30:16;;;;;;;12.00;9.57;;;9.40;99.90;;;;;;5021738;28;20025;-82
2022/04/22 04:32:42;;;;;;;10.02;7.53;;;9.40;99.90;;;;;;5008388;28;20033;-82
2022/04/22 04:35:09;;;;;;;12.48;9.05;;;9.50;99.90;;;;;;5022010;28;20672;-81
2022/04/22 04:37:42;;;;;;;13.00;10.77;;;9.50;99.90;;;;;;5023567;28;20017;-81
2022/04/22 04:40:11;;;;;;;17.30;10.52;;;9.50;99.90;;;;;;5024348;28;20471;-82
2022/04/22 04:42:38;;;;;;;12.82;10.05;;;9.50;99.90;;;;;;5008848;28;20040;-81
2022/04/22 04:45:08;;;;;;;12.02;9.35;;;9.50;99.90;;;;;;5003203;28;20037;-81
2022/04/22 04:47:40;;;;;;;12.38;10.07;;;9.50;99.90;;;;;;5007840;28;20381;-81
2022/04/22 04:50:11;;;;;;;13.70;10.85;;;9.60;99.90;;;;;;5001025;28;20037;-82
2022/04/22 04:52:41;;;;;;;12.55;9.68;;;9.60;99.90;;;;;;5009078;28;21324;-82
2022/04/22 04:55:10;;;;;;;10.43;8.25;;;9.60;99.90;;;;;;4994684;28;20037;-82
2022/04/22 04:57:37;;;;;;;10.90;9.70;;;9.60;99.90;;;;;;5024057;28;20042;-81
2022/04/22 05:00:05;;;;;;;11.20;9.65;;;9.60;99.90;;;;;;5021211;28;20021;-82
2022/04/22 05:02:32;;;;;;;13.00;10.57;;;9.60;99.90;;;;;;4990537;28;20031;-81
2022/04/22 05:04:59;;;;;;;10.43;9.13;;;9.60;99.90;;;;;;5019578;28;20025;-81
2022/04/22 05:07:26;;;;;;;12.68;9.90;;;9.60;99.90;;;;;;5006501;28;20465;-81
2022/04/22 05:09:55;;;;;;;11.93;9.77;;;9.60;99.90;;;;;;4991636;28;20572;-81
2022/04/22 05:12:27;;;;;;;11.73;10.15;;;9.70;99.90;;;;;;5004734;28;20037;-82
2022/04/22 05:14:58;;;;;;;14.67;10.03;;;9.80;99.90;;;;;;5021043;28;20021;-81
2022/04/22 05:17:25;;;;;;;13.55;10.27;;;9.80;99.90;;;;;;4990411;28;20362;-82
2022/04/22 05:19:52;;;;;;;13.48;10.75;;;9.90;99.90;;;;;;4989286;28;20049;-81
2022/04/22 05:22:19;;;;;;;14.23;11.45;;;9.90;99.90;;;;;;5003120;28;20049;-82
2022/04/22 05:24:46;;;;;;;13.50;10.13;;;9.90;99.90;;;;;;4990166;28;20048;-82
2022/04/22 05:27:15;;;;;;;12.77;10.48;;;9.80;99.90;;;;;;5024830;28;20040;-82
2022/04/22 05:33:00;;;;;;;13.07;11.05;;;9.70;99.90;;;;;;4993161;28;20461;-81
2022/04/22 05:35:21;;;;;;;11.20;9.90;;;9.70;99.90;;;;;;5015473;28;20038;-81
2022/04/22 05:37:53;;;;;;;13.85;12.02;;;9.70;99.90;;;;;;5022714;28;20044;-81
2022/04/22 05:40:26;;;;;;;14.48;12.82;;;9.70;99.90;;;;;;5035828;28;20508;-81
2022/04/22 05:42:53;;;;;;;18.85;12.70;;;9.70;99.90;;;;;;5021674;28;20028;-82
2022/04/22 05:45:22;;;;;;;12.35;10.95;;;9.80;99.90;;;;;;5007594;28;20030;-82
2022/04/22 05:47:51;;;;;;;13.25;11.32;;;9.90;99.90;;;;;;5018510;28;20045;-82
2022/04/22 05:50:18;;;;;;;14.30;11.88;;;10.10;99.90;;;;;;4987905;28;20064;-86
2022/04/22 05:52:46;;;;;;;13.75;10.77;;;10.30;99.90;;;;;;5024911;28;20037;-88
2022/04/22 05:55:18;;;;;;;13.88;11.73;;;10.40;99.90;;;;;;5021609;28;20033;-86
2022/04/22 05:57:46;;;;;;;13.77;11.07;;;10.50;99.90;;;;;;4988936;28;20026;-87
2022/04/22 06:00:16;;;;;;;16.05;12.73;;;10.60;99.90;;;;;;4987667;28;20030;-87
2022/04/22 06:02:52;;;;;;;12.98;11.02;;;10.70;99.90;;;;;;4989967;28;20041;-86
2022/04/22 06:05:20;;;;;;;12.75;10.75;;;10.80;99.90;;;;;;5005519;28;20049;-85
2022/04/22 06:07:47;;;;;;;12.35;10.23;;;10.90;99.90;;;;;;5006058;28;20128;-87
2022/04/22 06:10:33;;;;;;;11.20;9.43;;;11.10;99.90;;;;;;4990528;28;20377;-86
2022/04/22 06:13:04;;;;;;;15.15;10.90;;;11.20;99.90;;;;;;5020354;28;20053;-86
2022/04/22 06:15:33;;;;;;;12.93;11.20;;;11.30;99.90;;;;;;5005600;28;20037;-85
2022/04/22 06:18:06;;;;;;;13.38;10.23;;;11.40;99.90;;;;;;4990723;28;20036;-85
2022/04/22 06:20:33;;;;;;;21.15;13.52;;;11.30;99.90;;;;;;5019863;28;20021;-86
2022/04/22 06:23:02;;;;;;;14.18;11.48;;;11.30;99.90;;;;;;4985640;28;20045;-85
2022/04/22 06:25:31;;;;;;;14.77;10.80;;;11.30;99.90;;;;;;5003298;28;20033;-88
2022/04/22 06:28:01;;;;;;;13.70;11.50;;;11.30;99.90;;;;;;4989215;28;20091;-86
2022/04/22 06:30:36;;;;;;;13.05;11.02;;;11.50;99.90;;;;;;4987778;28;20037;-87
2022/04/22 06:33:06;;;;;;;14.63;11.95;;;11.70;99.90;;;;;;5000406;28;20413;-86
2022/04/22 06:38:39;;;;;;;19.10;12.48;;;12.00;99.90;;;;;;5020164;28;20044;-83
2022/04/22 06:47:28;;;;;;;14.95;11.55;;;12.60;99.90;;;;;;5025823;28;20042;-83
2022/04/22 06:50:17;;;;;;;16.30;10.50;;;12.70;99.90;;;;;;4992712;28;20057;-85
2022/04/22 06:53:01;;;;;;;18.05;13.77;;;12.90;99.90;;;;;;5023317;28;20393;-84
2022/04/22 06:55:43;;;;;;;15.38;12.52;;;13.00;99.90;;;;;;5002501;28;20041;-84
2022/04/22 06:58:44;;;;;;;15.13;11.50;;;13.20;99.90;;;;;;5024307;28;20033;-82
2022/04/22 07:01:42;;;;;;;15.50;12.07;;;13.40;99.90;;;;;;5003462;28;20045;-82
2022/04/22 07:04:17;;;;;;;14.60;11.38;;;13.50;99.90;;;;;;4989096;28;20405;-80
2022/04/22 07:06:58;;;;;;;17.48;11.73;;;13.50;99.90;;;;;;4991297;28;20062;-79
2022/04/22 07:10:02;;;;;;;13.13;9.90;;;13.60;99.90;;;;;;4990001;28;20069;-80
2022/04/22 07:12:33;;;;;;;16.55;11.88;;;13.70;99.90;;;;;;4971372;28;20064;-79
2022/04/22 07:15:06;;;;;;;12.77;9.57;;;14.00;99.90;;;;;;5001012;28;20141;-79
2022/04/22 07:17:37;;;;;;;12.18;9.02;;;14.10;99.90;;;;;;5002967;28;20476;-81
2022/04/22 07:20:30;;;;;;;13.50;10.07;;;14.10;99.90;;;;;;5000766;28;20026;-80
2022/04/22 07:23:08;;;;;;;13.38;10.48;;;14.00;99.90;;;;;;5002568;28;20053;-79
2022/04/22 07:25:56;;;;;;;13.93;8.95;;;14.10;99.90;;;;;;5004312;28;20041;-80
2022/04/22 07:28:36;;;;;;;13.32;10.32;;;14.10;99.90;;;;;;4973868;28;20050;-79
2022/04/22 07:31:11;;;;;;;12.45;9.27;;;14.10;99.90;;;;;;4984516;28;20037;-78
2022/04/22 07:33:44;;;;;;;13.68;9.77;;;14.30;99.90;;;;;;5020093;28;20477;-77
2022/04/22 07:36:32;;;;;;;11.88;9.10;;;14.20;99.90;;;;;;5022151;28;20514;-78
2022/04/22 07:39:00;;;;;;;10.85;9.25;;;14.30;99.90;;;;;;5008189;28;20401;-78
2022/04/22 07:41:28;;;;;;;16.50;9.00;;;14.40;99.90;;;;;;5007804;28;20038;-79
2022/04/22 07:47:02;;;;;;;12.43;8.73;;;14.60;99.90;;;;;;5037420;28;20032;-78
2022/04/22 07:49:32;;;;;;;12.65;9.07;;;14.70;99.90;;;;;;5034475;28;20535;-77
2022/04/22 07:52:04;;;;;;;11.32;8.45;;;14.80;99.90;;;;;;5027714;28;20480;-78
2022/04/22 07:54:38;;;;;;;13.02;9.07;;;15.00;99.90;;;;;;5018838;28;20508;-78
2022/04/22 07:57:06;;;;;;;12.55;9.55;;;15.10;99.90;;;;;;5051361;28;20033;-78
2022/04/22 07:59:36;;;;;;;11.55;8.93;;;15.20;99.90;;;;;;5020356;28;20042;-78
2022/04/22 08:02:06;;;;;;;13.02;9.40;;;15.30;99.90;;;;;;5036175;28;20077;-79
2022/04/22 08:04:35;;;;;;;10.98;8.05;;;15.30;99.90;;;;;;5022103;28;20025;-78
2022/04/22 08:07:05;;;;;;;11.20;8.25;;;15.30;99.90;;;;;;4992039;28;21048;-78
2022/04/22 08:09:44;;;;;;;;;;;;;;;;;;;;;
2022/04/22 08:12:37;;;;;;;13.13;8.63;;;15.30;99.90;;;;;;5012338;28;20045;-78
2022/04/22 08:15:13;;;;;;;12.50;8.25;;;15.40;99.90;;;;;;5007338;28;20413;-77
2022/04/22 08:17:39;;;;;;;13.13;9.00;;;15.50;99.90;;;;;;5008389;28;20029;-84
2022/04/22 08:20:10;;;;;;;9.88;8.40;;;15.50;99.90;;;;;;4990301;28;20064;-85
2022/04/22 08:22:44;;;;;;;17.23;12.00;;;15.60;99.90;;;;;;5006994;28;20393;-83
2022/04/22 08:25:12;;;;;;;14.75;10.40;;;15.70;99.90;;;;;;5022848;28;20036;-79
2022/04/22 08:28:02;;;;;;;10.55;7.72;;;15.80;99.90;;;;;;5018262;28;20033;-79
2022/04/22 08:30:30;;;;;;;14.57;9.30;;;16.00;99.90;;;;;;5020556;28;20029;-78
2022/04/22 08:33:01;;;;;;;9.60;7.68;;;16.00;99.90;;;;;;5022541;28;20030;-77
2022/04/22 08:35:29;;;;;;;12.20;9.20;;;16.10;99.90;;;;;;5005479;28;20457;-78
2022/04/22 08:38:01;;;;;;;11.82;8.55;;;16.10;99.60;;;;;;5003415;28;20025;-78
2022/04/22 08:40:42;;;;;;;11.35;8.57;;;16.00;99.60;;;;;;4984471;28;20048;-79
2022/04/22 08:43:37;;;;;;;13.63;7.97;;;16.00;99.20;;;;;;4990262;28;20050;-77
2022/04/22 08:49:58;;;;;;;12.82;9.07;;;16.20;99.60;;;;;;4971762;28;21323;-77
2022/04/22 08:51:48;;;;;;;12.48;8.13;;;16.50;98.60;;;;;;5000710;28;20513;-78
2022/04/22 08:54:17;;;;;;;10.88;7.75;;;16.40;98.30;;;;;;4984007;28;20037;-78
2022/04/22 08:56:44;;;;;;;9.93;6.68;;;16.50;98.10;;;;;;4971113;28;20535;-78
2022/04/22 08:59:29;;;;;;;9.15;6.20;;;16.60;97.60;;;;;;4971917;28;20030;-77
2022/04/22 09:01:56;;;;;;;11.18;7.05;;;16.60;97.40;;;;;;4989076;28;20025;-79
2022/04/22 09:04:26;;;;;;;10.07;7.78;;;16.70;97.40;;;;;;4972573;28;20060;-78
2022/04/22 09:06:53;;;;;;;10.05;8.30;;;16.80;97.10;;;;;;5002292;28;20351;-85
2022/04/22 09:09:19;;;;;;;8.02;7.03;;;16.90;96.80;;;;;;5001372;28;20034;-83
2022/04/22 09:11:49;;;;;;;9.20;6.93;;;16.90;96.30;;;;;;4984481;28;20102;-81
2022/04/22 09:14:19;;;;;;;12.55;7.22;;;16.90;95.30;;;;;;4954201;28;20050;-83
2022/04/22 09:16:46;;;;;;;10.60;7.63;;;16.90;95.40;;;;;;4970001;28;20030;-80
2022/04/22 09:19:18;;;;;;;9.13;6.15;;;16.90;95.30;;;;;;4985323;28;20080;-81
2022/04/22 09:21:57;;;;;;;9.25;6.45;;;17.00;95.30;;;;;;4970075;28;20026;-79
2022/04/22 09:24:24;;;;;;;7.53;6.00;;;17.10;95.10;;;;;;4983446;28;20057;-79
2022/04/22 09:27:08;;;;;;;11.73;7.03;;;17.20;95.10;;;;;;4973249;28;20475;-79
2022/04/22 09:29:49;;;;;;;9.40;6.63;;;17.30;94.70;;;;;;5017975;28;20047;-79
2022/04/22 09:32:24;;;;;;;12.10;8.03;;;17.20;94.60;;;;;;5004541;28;20040;-79
2022/04/22 09:34:57;;;;;;;10.23;8.02;;;17.30;94.40;;;;;;4973199;28;20041;-82
2022/04/22 09:43:18;;;;;;;5.22;4.10;;;17.50;94.20;;;;;;5022930;28;20037;-84
2022/04/22 09:45:46;;;;;;;6.38;4.18;;;17.80;93.90;;;;;;5018676;28;20044;-78
2022/04/22 09:48:14;;;;;;;5.82;4.22;;;17.90;93.60;;;;;;5002778;28;20042;-78
2022/04/22 09:50:57;;;;;;;7.35;4.25;;;18.00;93.40;;;;;;4989650;28;20041;-82
2022/04/22 09:53:33;;;;;;;7.78;4.43;;;18.00;92.70;;;;;;5003125;28;20077;-83
2022/04/22 09:56:08;;;;;;;9.73;6.30;;;18.00;92.70;;;;;;5002354;28;20041;-82
2022/04/22 09:58:37;;;;;;;6.18;4.93;;;18.10;93.00;;;;;;5003732;28;20049;-81
2022/04/22 10:01:06;;;;;;;8.55;5.13;;;18.20;92.20;;;;;;5000389;28;20033;-78
2022/04/22 10:03:39;;;;;;;6.63;4.97;;;18.30;91.80;;;;;;5004407;28;20021;-77
2022/04/22 10:06:06;;;;;;;6.57;4.57;;;18.30;91.40;;;;;;4970353;28;20048;-80
2022/04/22 10:08:36;;;;;;;6.00;4.40;;;18.30;91.20;;;;;;4989710;28;20037;-78
2022/04/22 10:11:07;;;;;;;6.18;3.95;;;18.30;90.80;;;;;;4985892;28;20045;-80
2022/04/22 10:13:44;;;;;;;11.18;6.45;;;18.40;91.10;;;;;;4989629;28;20041;-78
2022/04/22 10:16:14;;;;;;;7.13;4.38;;;18.60;90.80;;;;;;4999192;28;20041;-89
2022/04/22 10:18:46;;;;;;;5.95;3.53;;;18.70;90.10;;;;;;5013259;28;20098;-79
2022/04/22 10:21:14;;;;;;;7.65;4.78;;;18.80;90.00;;;;;;5006954;28;20036;-85
2022/04/22 10:23:45;;;;;;;7.20;5.03;;;18.90;89.40;;;;;;5006673;28;20425;-85
2022/04/22 10:26:12;;;;;;;6.13;4.38;;;18.90;88.50;;;;;;4970999;28;20525;-86
2022/04/22 10:28:44;;;;;;;7.63;4.20;;;18.80;88.60;;;;;;4991517;28;20022;-82
2022/04/22 10:31:11;;;;;;;5.25;3.90;;;18.70;88.20;;;;;;5002866;28;20053;-83
2022/04/22 10:33:40;;;;;;;10.80;5.22;;;18.80;87.70;;;;;;5004777;28;20038;-82
2022/04/22 10:36:06;;;;;;;7.72;4.72;;;19.00;86.20;;;;;;4991999;28;20023;-80
2022/04/22 10:38:38;;;;;;;7.82;5.00;;;19.00;84.80;;;;;;5000892;28;20021;-78
2022/04/22 10:41:19;;;;;;;5.05;3.55;;;18.90;84.60;;;;;;4996363;28;20014;-78
2022/04/22 10:49:39;;;;;;;5.40;3.58;;;18.80;84.00;;;;;;4983886;28;20030;-81
2022/04/22 10:52:19;;;;;;;5.18;3.63;;;18.90;85.00;;;;;;5004841;28;20049;-81
2022/04/22 10:54:52;;;;;;;6.43;3.20;;;19.30;85.00;;;;;;4978512;28;20034;-82
2022/04/22 10:57:29;;;;;;;6.00;3.40;;;19.90;83.80;;;;;;4988392;28;20036;-83
2022/04/22 11:00:11;;;;;;;6.18;4.13;;;20.50;80.30;;;;;;5002044;28;20025;-78
2022/04/22 11:02:41;;;;;;;6.63;3.75;;;20.70;78.50;;;;;;5004504;28;20018;-76
2022/04/22 11:05:20;;;;;;;3.83;2.17;;;20.60;77.00;;;;;;4986957;28;20026;-81
2022/04/22 11:07:53;;;;;;;6.20;3.50;;;20.70;76.30;;;;;;4989442;28;20490;-81
2022/04/22 11:10:29;;;;;;;6.38;3.47;;;20.70;75.50;;;;;;4970065;28;20030;-84
2022/04/22 11:13:02;;;;;;;5.45;2.90;;;20.90;74.00;;;;;;5020177;28;20031;-80
2022/04/22 11:15:46;;;;;;;20.30;10.30;;;21.10;72.50;;;;;;4975303;28;20045;-81
2022/04/22 11:18:15;;;;;;;12.77;8.35;;;21.00;70.30;;;;;;5005028;28;20478;-80
2022/04/22 11:20:58;;;;;;;5.22;2.60;;;21.00;70.00;;;;;;5000006;28;20061;-81
2022/04/22 11:23:37;;;;;;;4.63;2.35;;;21.10;68.00;;;;;;4994178;28;20033;-83
2022/04/22 11:26:05;;;;;;;4.15;1.67;;;21.30;67.10;;;;;;5004939;28;20029;-84
2022/04/22 11:28:37;;;;;;;3.85;2.08;;;21.80;64.70;;;;;;5023830;28;20022;-81
2022/04/22 11:31:07;;;;;;;3.25;1.73;;;22.10;62.80;;;;;;4985853;28;20048;-79
2022/04/22 11:33:48;;;;;;;5.93;2.35;;;21.90;62.10;;;;;;4988937;28;20042;-82
2022/04/22 11:36:17;;;;;;;5.80;2.05;;;21.40;62.70;;;;;;5008116;28;20049;-84
2022/04/22 11:38:54;;;;;;;4.78;2.25;;;20.90;62.60;;;;;;5011159;28;20045;-81
2022/04/22 11:41:22;;;;;;;2.50;1.50;;;20.80;63.00;;;;;;5007723;28;20501;-79
2022/04/22 11:43:52;;;;;;;3.03;1.38;;;20.60;61.80;;;;;;4991686;28;20053;-80
2022/04/22 11:46:19;;;;;;;3.30;1.67;;;20.50;62.30;;;;;;4995502;28;20038;-81
2022/04/22 11:48:47;;;;;;;3.20;1.48;;;20.40;63.00;;;;;;5018701;28;20038;-80
2022/04/22 11:51:25;;;;;;;5.35;2.10;;;20.60;62.80;;;;;;4995494;28;20401;-81
2022/04/22 11:54:01;;;;;;;3.58;1.63;;;20.80;61.90;;;;;;5025425;28;20034;-80
2022/04/22 11:56:27;;;;;;;4.10;1.95;;;20.90;61.30;;;;;;5012995;28;20042;-79
2022/04/22 11:58:56;;;;;;;3.92;1.83;;;21.50;60.30;;;;;;5011413;28;20029;-80
2022/04/22 12:10:09;;;;;;;3.33;2.42;;;21.40;59.90;;;;;;5000585;28;20038;-78
2022/04/22 12:12:56;;;;;;;33.92;24.98;;;22.00;59.20;;;;;;5003363;28;20026;-76
2022/04/22 12:15:31;;;;;;;3.78;2.83;;;22.50;58.30;;;;;;5002945;28;20410;-77
2022/04/22 12:18:04;;;;;;;4.28;1.70;;;22.70;56.90;;;;;;4986207;28;20030;-78
2022/04/22 12:20:36;;;;;;;3.22;2.33;;;22.30;58.20;;;;;;4997434;28;20046;-79
2022/04/22 12:23:04;;;;;;;5.25;1.90;;;22.10;57.50;;;;;;4997714;28;20061;-80
2022/04/22 12:25:34;;;;;;;5.25;2.72;;;21.80;57.70;;;;;;5000747;28;20026;-80
2022/04/22 12:28:08;;;;;;;;;;;21.50;58.40;;;;;;4983854;28;20045;-80
2022/04/22 12:30:44;;;;;;;2.70;2.00;;;21.80;58.80;;;;;;4997480;28;19917;-79
2022/04/22 12:33:24;;;;;;;3.60;2.60;;;22.70;57.60;;;;;;5000372;28;20030;-79
2022/04/22 12:36:05;;;;;;;7.45;3.20;;;23.60;56.80;;;;;;4998864;28;20048;-80
2022/04/22 12:38:35;;;;;;;3.88;2.15;;;24.50;53.60;;;;;;5001756;28;20038;-79
2022/04/22 12:41:02;;;;;;;2.80;1.73;;;25.00;54.00;;;;;;4996331;28;20500;-80
2022/04/22 12:43:33;;;;;;;4.72;2.03;;;25.30;52.70;;;;;;4994790;28;20038;-79
2022/04/22 12:52:43;;;;;;;3.63;2.03;;;24.30;50.60;;;;;;4999053;28;20445;-79
2022/04/22 12:55:19;;;;;;;6.20;2.83;;;23.90;51.70;;;;;;4967545;28;20104;-79
2022/04/22 12:57:58;;;;;;;2.97;1.60;;;23.30;51.50;;;;;;4980620;28;20050;-79
2022/04/22 13:00:27;;;;;;;3.80;1.60;;;22.80;52.20;;;;;;4994378;28;20042;-80
2022/04/22 13:03:10;;;;;;;5.10;1.05;;;22.50;53.40;;;;;;5000452;28;20061;-79
2022/04/22 13:05:36;;;;;;;3.70;1.65;;;22.50;53.50;;;;;;4998470;28;20389;-80
2022/04/22 13:08:15;;;;;;;3.88;2.20;;;22.60;53.30;;;;;;4967370;28;20037;-80
2022/04/22 13:10:57;;;;;;;2.97;1.80;;;22.50;52.50;;;;;;4997044;28;20046;-81
2022/04/22 13:13:31;;;;;;;3.80;1.75;;;22.10;52.90;;;;;;5001009;28;20025;-79
2022/04/22 13:16:01;;;;;;;3.83;2.88;;;21.70;54.00;;;;;;5001720;28;20515;-80
2022/04/22 13:18:31;;;;;;;4.00;1.65;;;21.40;54.60;;;;;;5000856;28;20053;-78
2022/04/22 13:21:04;;;;;;;3.35;1.58;;;21.00;55.60;;;;;;5001567;28;20048;-81
2022/04/22 13:23:33;;;;;;;2.50;1.75;;;20.80;56.50;;;;;;4972623;28;20395;-81
2022/04/22 13:26:05;;;;;;;3.35;2.33;;;20.60;56.90;;;;;;4998479;28;20382;-81
2022/04/22 13:28:41;;;;;;;6.88;2.60;;;20.30;56.60;;;;;;5000363;28;20041;-81
2022/04/22 13:31:09;;;;;;;3.08;1.55;;;20.00;57.60;;;;;;4996005;28;20021;-78
2022/04/22 13:33:36;;;;;;;4.03;1.90;;;19.80;58.20;;;;;;4981951;28;20034;-79
2022/04/22 13:36:07;;;;;;;3.03;2.13;;;19.80;58.60;;;;;;4996863;28;20050;-76
2022/04/22 13:38:35;;;;;;;5.93;2.20;;;19.80;58.80;;;;;;4998866;28;20021;-77
2022/04/22 13:41:02;;;;;;;3.65;2.03;;;19.80;58.80;;;;;;4995916;28;20026;-76
2022/04/22 13:43:30;;;;;;;4.95;2.85;;;19.80;58.80;;;;;;4982283;28;20021;-78
2022/04/22 13:54:21;;;;;;;6.97;2.33;;;21.00;56.90;;;;;;5000672;28;20508;-76
2022/04/22 13:56:49;;;;;;;2.72;2.03;;;21.10;56.50;;;;;;4998488;28;20053;-76
2022/04/22 13:59:21;;;;;;;3.40;2.60;;;21.10;55.70;;;;;;4979935;28;20022;-76
2022/04/22 14:01:47;;;;;;;;;;;20.90;56.00;;;;;;5001526;28;20401;-77
2022/04/22 14:04:14;;;;;;;3.85;2.08;;;20.70;56.60;;;;;;5001116;28;19924;-76
2022/04/22 14:07:01;;;;;;;3.92;1.70;;;20.60;56.80;;;;;;4983092;28;20038;-77
2022/04/22 14:09:35;;;;;;;4.20;2.00;;;20.40;57.60;;;;;;4977774;28;20045;-78
2022/04/22 14:12:06;;;;;;;5.13;2.17;;;20.30;58.10;;;;;;5001908;28;20029;-77
2022/04/22 14:14:33;;;;;;;5.40;1.80;;;20.10;58.10;;;;;;4984418;28;20041;-77
2022/04/22 14:17:00;;;;;;;8.07;2.40;;;19.90;58.50;;;;;;4998030;28;20029;-78
2022/04/22 14:19:30;;;;;;;6.38;2.60;;;19.70;59.00;;;;;;4985037;28;20034;-78
2022/04/22 14:22:03;;;;;;;3.50;2.03;;;19.50;59.70;;;;;;4999235;28;20045;-79
2022/04/22 14:24:36;;;;;;;2.92;1.83;;;19.40;60.20;;;;;;4992295;28;20056;-83
2022/04/22 14:27:06;;;;;;;3.65;1.90;;;19.30;60.40;;;;;;4993724;28;20040;-81
2022/04/22 14:29:39;;;;;;;;;;;19.30;60.80;;;;;;4994222;28;20396;-82
2022/04/22 14:32:13;;;;;;;3.13;2.00;;;19.30;60.90;;;;;;5005852;28;19940;-83
2022/04/22 14:34:42;;;;;;;4.25;1.98;;;19.20;61.20;;;;;;5006680;28;20041;-85